Terminal Aerodrome Forecast
Issued by NWS Mt. Holly, NJ

Home | Current Version | Previous Version | Text Only | Print | Product List | Glossary On
Versions: 1 2 3 4 5 6 7 8 9 10 11 12 13 14 15 16 17 18 19 20 21 22 23 24 25 26
880
FTUS41 KPHI 060537
TAFABE
TAF
KABE 060537Z 0606/0706 36003KT P6SM OVC030
      TEMPO 0607/0609 BKN020
     FM060900 03008KT 6SM -RA BR OVC020
     FM061200 03010KT 3SM RA BR OVC009
     FM061900 05007KT 6SM -RA BR OVC010=

USA.gov is the U.S. government's official web portal to all federal, state and local government web resources and services.